States of Jersey

Home Log in

Channel Islands Terminal Aerodrome Forecasts (TAFs) issued Sunday, 23 July 2017

Jersey Airport - EGJJ

231357Z 2315/2324 29012KT 9999 SCT015 PROB30 TEMPO 2315/2324 BKN015 BECMG 2322/2324 31015KT=

Guernsey Airport - EGJB

231357Z 2315/2324 25012KT 9999 SCT012 PROB30 TEMPO 2315/2324 BKN012 BECMG 2321/2324 31015KT=

Alderney Airport - EGJA

231357Z 2315/2319 26012KT 9999 SCT010=